Kahului, Hawaii
Current Conditions -  °F | °C
As of 7:54 PM on Friday 19 Dec 2014 (Local Time) from PHOG Reporting Station
Few Clouds Few Clouds  
Wind Chill: 72°   Ceiling: Unl
Heat Index: 72°   Visibility: 10mi
Dew Point: 64°   Wind: 5mph
Humidity: 76%   Direction: 110°ESE
Pressure: 30.02"   Gusts: NA
Location:  20.89°N, 156.46°W
Report Text: PHOG 200554Z 11004KT 10SM FEW030 22/18 A3002 RMK AO2 SLP169 T02220178 10300 20217 53017 $
Loading
Personal Weather Stations






























Interactive Weather Map New forecast layout! Learn more

10-Day Weather Forecast

Advertisements
Track Severe Weather on mobile